Time;durP1;ratioP1;P1;durP2;ratioP2;P2;SDS_P1;SDS_P2;PMS_P1;PMS_P2;Temp;Humidity;BMP_temperature;BMP_pressure;BME280_temperature;BME280_humidity;BME280_pressure;Samples;Min_cycle;Max_cycle;Signal;HPM_P1;HPM_P2
2022/09/11 00:01:49;;;;;;;1.38;1.08;;;13.90;99.90;;;;;;5092707;28;20189;-86
2022/09/11 00:04:17;;;;;;;2.75;1.20;;;13.90;99.90;;;;;;5095152;28;20198;-86
2022/09/11 00:06:51;;;;;;;1.75;1.25;;;13.90;99.90;;;;;;5091608;28;20221;-86
2022/09/11 00:09:18;;;;;;;2.03;1.33;;;13.80;99.90;;;;;;5096612;28;20196;-86
2022/09/11 00:11:46;;;;;;;1.38;1.10;;;13.80;99.90;;;;;;5091283;28;20200;-86
2022/09/11 00:14:14;;;;;;;3.47;1.38;;;13.80;99.90;;;;;;5092267;28;20193;-86
2022/09/11 00:16:43;;;;;;;3.45;1.60;;;13.80;99.90;;;;;;5091039;28;20207;-86
2022/09/11 00:19:13;;;;;;;1.90;1.08;;;13.80;99.90;;;;;;5092045;28;20189;-86
2022/09/11 00:21:40;;;;;;;2.67;1.08;;;13.80;99.90;;;;;;5095663;28;20670;-86
2022/09/11 00:24:08;;;;;;;1.85;1.13;;;13.80;99.90;;;;;;5095136;28;20632;-86
2022/09/11 00:26:35;;;;;;;2.35;1.02;;;13.90;99.60;;;;;;5095378;28;20212;-86
2022/09/11 00:29:04;;;;;;;4.32;1.20;;;13.80;99.70;;;;;;5091675;28;20195;-86
2022/09/11 00:31:31;;;;;;;3.78;1.23;;;13.80;99.60;;;;;;5099552;28;20220;-86
2022/09/11 00:33:58;;;;;;;2.05;1.20;;;13.80;99.60;;;;;;5092273;28;20210;-86
2022/09/11 00:36:27;;;;;;;4.50;1.27;;;13.80;99.80;;;;;;5092156;28;20200;-86
2022/09/11 00:38:55;;;;;;;5.68;1.40;;;13.80;99.90;;;;;;5092211;28;20659;-86
2022/09/11 00:41:24;;;;;;;3.08;1.30;;;13.80;99.90;;;;;;5092273;28;20204;-86
2022/09/11 00:43:58;;;;;;;2.17;1.20;;;13.80;99.80;;;;;;5088849;28;20221;-86
2022/09/11 00:46:34;;;;;;;1.85;1.42;;;13.70;99.90;;;;;;5093845;28;20647;-86
2022/09/11 00:49:06;;;;;;;1.90;1.00;;;13.70;99.90;;;;;;5096718;28;20200;-86
2022/09/11 00:51:36;;;;;;;1.50;1.40;;;13.70;99.90;;;;;;5096763;28;20627;-86
2022/09/11 00:54:04;;;;;;;1.40;1.25;;;13.80;99.80;;;;;;5086134;28;20284;-86
2022/09/11 00:56:35;;;;;;;2.53;1.40;;;13.80;99.80;;;;;;5092370;28;20279;-86
2022/09/11 00:59:03;;;;;;;3.72;1.45;;;13.80;99.90;;;;;;5080290;28;20201;-86
2022/09/11 01:01:32;;;;;;;2.10;1.60;;;13.90;99.60;;;;;;5089921;28;20207;-86
2022/09/11 01:04:00;;;;;;;2.58;1.10;;;13.90;99.40;;;;;;5092750;28;20254;-86
2022/09/11 01:06:27;;;;;;;3.13;1.35;;;13.90;99.30;;;;;;5092642;28;20219;-86
2022/09/11 01:08:54;;;;;;;4.22;1.35;;;13.90;99.30;;;;;;5101180;28;20200;-85
2022/09/11 01:11:40;;;;;;;4.82;1.58;;;13.90;99.40;;;;;;5092994;28;20215;-86
2022/09/11 01:14:16;;;;;;;4.03;1.25;;;13.90;99.40;;;;;;5092296;28;20573;-86
2022/09/11 01:16:52;;;;;;;2.67;1.20;;;13.90;99.30;;;;;;5090908;28;20200;-86
2022/09/11 01:19:33;;;;;;;1.63;1.15;;;13.90;99.50;;;;;;5086721;28;20208;-86
2022/09/11 01:22:27;;;;;;;4.93;1.45;;;13.90;99.30;;;;;;5089176;28;20675;-86
2022/09/11 01:25:00;;;;;;;2.72;1.20;;;13.90;99.40;;;;;;5091669;28;20201;-86
2022/09/11 01:27:49;;;;;;;2.38;1.10;;;13.90;99.50;;;;;;5091483;28;20224;-86
2022/09/11 01:30:18;;;;;;;1.70;1.20;;;13.90;99.50;;;;;;5087475;28;20204;-86
2022/09/11 01:33:00;;;;;;;1.35;1.20;;;13.90;99.70;;;;;;5095176;28;20666;-86
2022/09/11 01:35:40;;;;;;;5.80;1.40;;;13.90;99.60;;;;;;5084014;28;20549;-86
2022/09/11 01:38:13;;;;;;;2.42;1.27;;;13.90;99.50;;;;;;5091107;28;20210;-86
2022/09/11 01:40:47;;;;;;;3.10;1.23;;;13.90;99.40;;;;;;5085466;28;20291;-86
2022/09/11 01:43:21;;;;;;;1.45;1.10;;;14.00;99.20;;;;;;5092069;28;20196;-85
2022/09/11 01:45:51;;;;;;;3.17;1.10;;;14.00;99.30;;;;;;5089698;28;20196;-86
2022/09/11 01:48:23;;;;;;;3.40;1.20;;;13.90;99.30;;;;;;5088812;28;20289;-86
2022/09/11 01:50:54;;;;;;;2.08;1.15;;;13.90;99.70;;;;;;5090618;28;20527;-86
2022/09/11 01:53:25;;;;;;;4.15;1.30;;;13.90;99.50;;;;;;5091672;28;20312;-85
2022/09/11 01:55:56;;;;;;;2.75;1.30;;;13.80;99.50;;;;;;5085642;28;20203;-85
2022/09/11 01:58:30;;;;;;;1.45;1.15;;;13.80;99.60;;;;;;5102946;28;20211;-85
2022/09/11 02:01:07;;;;;;;2.40;1.10;;;13.80;99.60;;;;;;5091852;28;20214;-85
2022/09/11 02:03:37;;;;;;;2.85;1.45;;;13.80;99.90;;;;;;5090093;28;20204;-85
2022/09/11 02:06:08;;;;;;;4.10;1.40;;;13.80;99.80;;;;;;5078009;28;20193;-85
2022/09/11 02:08:45;;;;;;;2.90;1.30;;;13.90;99.70;;;;;;5086591;28;20237;-85
2022/09/11 02:11:14;;;;;;;1.08;0.98;;;13.90;99.30;;;;;;5085194;28;20202;-87
2022/09/11 02:13:51;;;;;;;1.55;1.25;;;13.90;99.20;;;;;;5087436;28;20211;-86
2022/09/11 02:16:21;;;;;;;2.58;1.27;;;13.90;99.30;;;;;;5085439;28;20196;-86
2022/09/11 02:18:58;;;;;;;1.77;1.25;;;14.00;99.30;;;;;;5092247;28;20197;-86
2022/09/11 02:21:26;;;;;;;2.40;1.30;;;13.90;99.30;;;;;;5083689;28;20200;-86
2022/09/11 02:23:54;;;;;;;2.35;1.10;;;14.00;98.90;;;;;;5092605;28;20284;-86
2022/09/11 02:26:24;;;;;;;2.33;1.30;;;14.00;98.50;;;;;;5083830;28;20710;-86
2022/09/11 02:28:53;;;;;;;4.38;1.08;;;14.10;98.70;;;;;;5082887;28;20216;-86
2022/09/11 02:31:21;;;;;;;3.95;1.10;;;14.10;98.40;;;;;;5081814;28;20205;-86
2022/09/11 02:33:48;;;;;;;1.42;1.00;;;14.00;98.50;;;;;;5094431;28;20196;-86
2022/09/11 02:36:47;;;;;;;2.83;1.10;;;14.00;98.90;;;;;;5093981;28;20193;-86
2022/09/11 02:39:32;;;;;;;2.83;1.30;;;14.00;98.70;;;;;;5089556;28;20201;-86
2022/09/11 02:42:14;;;;;;;2.95;1.20;;;14.10;98.60;;;;;;5100854;28;20200;-86
2022/09/11 02:44:52;;;;;;;1.95;1.17;;;14.10;98.50;;;;;;5096715;28;20645;-86
2022/09/11 02:47:31;;;;;;;1.85;1.30;;;14.00;99.00;;;;;;5093293;28;20224;-86
2022/09/11 02:50:08;;;;;;;3.85;1.30;;;14.00;99.30;;;;;;5094782;28;20197;-86
2022/09/11 02:52:46;;;;;;;1.52;1.30;;;14.00;99.20;;;;;;5093854;28;20577;-86
2022/09/11 02:55:21;;;;;;;2.47;1.17;;;14.00;99.50;;;;;;5093307;28;20292;-86
2022/09/11 02:58:01;;;;;;;2.78;1.20;;;13.90;99.70;;;;;;5094287;28;20455;-85
2022/09/11 03:00:29;;;;;;;5.38;1.40;;;13.90;99.60;;;;;;5093821;28;20679;-85
2022/09/11 03:02:56;;;;;;;2.88;1.20;;;13.90;99.70;;;;;;5095266;28;20564;-86
2022/09/11 03:05:23;;;;;;;1.90;1.17;;;14.00;99.40;;;;;;5092559;28;20200;-86
2022/09/11 03:07:50;;;;;;;2.90;1.20;;;13.90;99.40;;;;;;5094302;28;20230;-86
2022/09/11 03:10:17;;;;;;;3.92;1.40;;;13.90;99.50;;;;;;5094801;28;20652;-86
2022/09/11 03:12:43;;;;;;;1.83;1.15;;;13.90;99.70;;;;;;5095497;28;20207;-85
2022/09/11 03:15:12;;;;;;;3.95;1.05;;;13.90;99.60;;;;;;5098336;28;20291;-86
2022/09/11 03:17:40;;;;;;;3.65;1.13;;;13.90;99.60;;;;;;5093780;28;20203;-86
2022/09/11 03:20:08;;;;;;;2.95;1.30;;;13.80;99.90;;;;;;5094534;28;20203;-86
2022/09/11 03:22:35;;;;;;;2.30;1.45;;;13.80;99.90;;;;;;5089300;28;20197;-86
2022/09/11 03:25:01;;;;;;;3.38;1.40;;;13.80;99.90;;;;;;5092809;28;20196;-86
2022/09/11 03:27:28;;;;;;;2.22;1.58;;;13.70;99.90;;;;;;5104930;28;20583;-86
2022/09/11 03:29:56;;;;;;;3.92;1.50;;;13.80;99.90;;;;;;5093046;28;20722;-85
2022/09/11 03:32:22;;;;;;;2.80;1.80;;;13.70;99.90;;;;;;5092954;28;20554;-86
2022/09/11 03:34:51;;;;;;;1.67;1.20;;;13.70;99.90;;;;;;5095686;28;20542;-86
2022/09/11 03:37:18;;;;;;;1.50;1.02;;;13.80;99.90;;;;;;5103481;28;20192;-86
2022/09/11 03:39:44;;;;;;;3.10;1.30;;;13.80;99.90;;;;;;5101486;28;20226;-86
2022/09/11 03:42:15;;;;;;;2.17;1.25;;;13.80;99.90;;;;;;5084535;28;20201;-86
2022/09/11 03:44:42;;;;;;;2.30;1.20;;;13.70;99.90;;;;;;5099998;28;20220;-86
2022/09/11 03:47:10;;;;;;;4.10;1.73;;;13.70;99.90;;;;;;5103655;28;20235;-86
2022/09/11 03:49:38;;;;;;;3.00;1.30;;;13.80;99.90;;;;;;5098262;28;20275;-86
2022/09/11 03:52:06;;;;;;;2.97;1.15;;;13.80;99.90;;;;;;5103210;28;20226;-85
2022/09/11 03:54:34;;;;;;;1.88;1.20;;;13.80;99.60;;;;;;5095426;28;20279;-85
2022/09/11 03:57:01;;;;;;;2.78;1.40;;;13.80;99.50;;;;;;5097721;28;20547;-86
2022/09/11 03:59:28;;;;;;;2.47;1.30;;;13.80;99.80;;;;;;5092290;28;20679;-86
2022/09/11 04:01:54;;;;;;;3.08;1.40;;;13.70;99.80;;;;;;5092698;28;20207;-86
2022/09/11 04:04:21;;;;;;;2.13;1.13;;;13.70;99.80;;;;;;5093286;28;20201;-86
2022/09/11 04:06:48;;;;;;;1.65;1.10;;;13.80;99.70;;;;;;5093505;28;20200;-85
2022/09/11 04:09:17;;;;;;;3.53;1.25;;;13.70;99.60;;;;;;5095101;28;20220;-86
2022/09/11 04:11:44;;;;;;;4.90;1.52;;;13.70;99.70;;;;;;5104852;28;20211;-85
2022/09/11 04:14:10;;;;;;;2.35;1.35;;;13.60;99.90;;;;;;5095851;28;20675;-86
2022/09/11 04:16:39;;;;;;;3.95;1.30;;;13.60;99.90;;;;;;5100482;28;20235;-86
2022/09/11 04:19:06;;;;;;;1.92;1.13;;;13.60;99.90;;;;;;5095618;28;20200;-86
2022/09/11 04:21:33;;;;;;;3.03;1.10;;;13.60;99.90;;;;;;5095756;28;20200;-86
2022/09/11 04:24:00;;;;;;;2.17;1.30;;;13.60;99.90;;;;;;5097326;28;20287;-86
2022/09/11 04:26:30;;;;;;;2.25;1.23;;;13.60;99.90;;;;;;5092989;28;20576;-85
2022/09/11 04:28:58;;;;;;;1.60;1.15;;;13.60;99.90;;;;;;5094334;28;20234;-86
2022/09/11 04:31:26;;;;;;;3.97;1.25;;;13.60;99.90;;;;;;5088718;28;20648;-85
2022/09/11 04:33:53;;;;;;;2.80;1.35;;;13.60;99.80;;;;;;5100801;28;20290;-86
2022/09/11 04:36:21;;;;;;;1.83;1.15;;;13.60;99.90;;;;;;5105454;28;20666;-86
2022/09/11 04:38:55;;;;;;;1.73;1.17;;;13.60;99.90;;;;;;5095241;28;20247;-85
2022/09/11 04:41:22;;;;;;;4.72;1.30;;;13.60;99.90;;;;;;5103907;28;20308;-86
2022/09/11 04:43:54;;;;;;;2.67;1.30;;;13.70;99.70;;;;;;5087405;28;20702;-86
2022/09/11 04:46:22;;;;;;;3.10;1.15;;;13.70;99.90;;;;;;5086196;28;20212;-86
2022/09/11 04:48:51;;;;;;;2.65;1.08;;;13.70;99.70;;;;;;5097986;28;20227;-86
2022/09/11 04:51:21;;;;;;;1.25;1.13;;;13.70;99.80;;;;;;5096006;28;20197;-86
2022/09/11 04:53:48;;;;;;;4.45;1.48;;;13.70;99.90;;;;;;5093526;28;20224;-86
2022/09/11 04:56:21;;;;;;;2.92;1.60;;;13.70;99.90;;;;;;5090986;28;20200;-86
2022/09/11 04:58:54;;;;;;;2.58;1.30;;;13.70;99.90;;;;;;5092747;28;20213;-86
2022/09/11 05:01:23;;;;;;;2.03;1.40;;;13.70;99.90;;;;;;5095204;28;20200;-86
2022/09/11 05:03:51;;;;;;;3.75;1.25;;;13.70;99.90;;;;;;5093486;28;20204;-86
2022/09/11 05:06:18;;;;;;;2.92;1.25;;;13.70;99.90;;;;;;5089698;28;20209;-86
2022/09/11 05:08:46;;;;;;;4.72;1.52;;;13.70;99.90;;;;;;5100575;28;20226;-85
2022/09/11 05:11:15;;;;;;;3.05;1.30;;;13.70;99.90;;;;;;5098978;28;20255;-85
2022/09/11 05:13:43;;;;;;;3.88;1.30;;;13.60;99.90;;;;;;5082759;28;20212;-86
2022/09/11 05:16:13;;;;;;;3.88;1.40;;;13.70;99.90;;;;;;5091131;28;21722;-86
2022/09/11 05:18:50;;;;;;;4.10;1.30;;;13.80;99.90;;;;;;5093257;28;20592;-85
2022/09/11 05:21:18;;;;;;;3.35;1.33;;;13.70;99.90;;;;;;5107329;28;20201;-86
2022/09/11 05:23:48;;;;;;;3.75;1.30;;;13.70;99.90;;;;;;5106859;28;20575;-86
2022/09/11 05:26:16;;;;;;;2.42;1.15;;;13.80;99.90;;;;;;5090670;28;20205;-86
2022/09/11 05:28:43;;;;;;;3.10;1.35;;;13.80;99.90;;;;;;5098095;28;20227;-86
2022/09/11 05:31:14;;;;;;;2.92;1.30;;;13.80;99.90;;;;;;5090844;28;20203;-86
2022/09/11 05:33:46;;;;;;;2.05;1.40;;;13.80;99.90;;;;;;5093140;28;20291;-86
2022/09/11 05:36:14;;;;;;;2.20;1.50;;;13.80;99.90;;;;;;5090338;28;20215;-86
2022/09/11 05:38:41;;;;;;;3.10;1.33;;;13.80;99.90;;;;;;5092154;28;20208;-86
2022/09/11 05:41:10;;;;;;;4.78;1.90;;;13.90;99.90;;;;;;5090816;28;20557;-86
2022/09/11 05:43:40;;;;;;;2.10;1.50;;;13.90;99.90;;;;;;5091389;28;20240;-86
2022/09/11 05:46:10;;;;;;;3.28;1.40;;;13.90;99.90;;;;;;5094336;28;20196;-86
2022/09/11 05:48:39;;;;;;;3.30;1.50;;;13.90;99.90;;;;;;5091423;28;20226;-86
2022/09/11 05:51:08;;;;;;;3.28;1.35;;;13.90;99.90;;;;;;5095018;28;20197;-86
2022/09/11 05:53:36;;;;;;;2.67;1.40;;;14.00;99.90;;;;;;5095172;28;20205;-86
2022/09/11 05:56:07;;;;;;;2.85;1.50;;;14.00;99.90;;;;;;5096572;28;21499;-86
2022/09/11 05:58:35;;;;;;;3.90;1.38;;;14.00;99.60;;;;;;5097318;28;20204;-86
2022/09/11 06:01:07;;;;;;;1.30;1.20;;;14.10;99.60;;;;;;5094937;28;20196;-86
2022/09/11 06:03:34;;;;;;;2.60;1.38;;;14.10;99.40;;;;;;5096814;28;20316;-86
2022/09/11 06:06:03;;;;;;;3.80;1.50;;;14.10;99.10;;;;;;5089600;28;20201;-86
2022/09/11 06:08:32;;;;;;;2.88;1.45;;;14.20;99.20;;;;;;5090207;28;20228;-86
2022/09/11 06:10:59;;;;;;;3.42;1.75;;;14.20;99.10;;;;;;5088380;28;20205;-86
2022/09/11 06:13:28;;;;;;;2.45;1.42;;;14.20;99.00;;;;;;5098614;28;20208;-86
2022/09/11 06:15:55;;;;;;;2.97;1.48;;;14.20;99.10;;;;;;5096099;28;20212;-86
2022/09/11 06:18:22;;;;;;;3.00;1.60;;;14.20;99.00;;;;;;5092094;28;20197;-86
2022/09/11 06:20:56;;;;;;;2.90;1.23;;;14.20;99.20;;;;;;5094197;28;20203;-86
2022/09/11 06:23:25;;;;;;;3.25;1.40;;;14.20;99.10;;;;;;5094441;28;20219;-86
2022/09/11 06:26:04;;;;;;;2.70;1.35;;;14.30;98.90;;;;;;5093789;28;20208;-86
2022/09/11 06:28:31;;;;;;;3.15;1.48;;;14.40;98.70;;;;;;5103171;28;20226;-86
2022/09/11 06:30:58;;;;;;;4.70;1.70;;;14.40;98.70;;;;;;5093549;28;20192;-86
2022/09/11 06:33:25;;;;;;;2.70;1.30;;;14.60;98.20;;;;;;5102933;28;20200;-85
2022/09/11 06:35:59;;;;;;;3.60;1.40;;;14.70;98.10;;;;;;5096397;28;20643;-86
2022/09/11 06:38:28;;;;;;;3.72;1.30;;;14.90;97.60;;;;;;5086624;28;20191;-86
2022/09/11 06:40:55;;;;;;;4.00;1.83;;;14.90;96.90;;;;;;5093441;28;20196;-86
2022/09/11 06:43:23;;;;;;;3.97;1.30;;;14.90;96.90;;;;;;5099805;28;20235;-86
2022/09/11 06:45:50;;;;;;;3.53;1.45;;;15.00;97.30;;;;;;5095184;28;20204;-86
2022/09/11 06:48:27;;;;;;;3.72;1.30;;;15.10;96.90;;;;;;5086492;28;20280;-85
2022/09/11 06:50:56;;;;;;;2.13;1.23;;;15.10;96.90;;;;;;5093790;28;20596;-86
2022/09/11 06:53:29;;;;;;;3.25;1.63;;;15.20;97.00;;;;;;5095804;28;20200;-86
2022/09/11 06:55:59;;;;;;;7.60;5.85;;;15.20;97.00;;;;;;5093703;28;20192;-86
2022/09/11 06:58:26;;;;;;;4.40;1.88;;;15.10;96.90;;;;;;5095318;28;20224;-86
2022/09/11 07:00:53;;;;;;;1.52;1.42;;;15.20;96.90;;;;;;5093956;28;20200;-86
2022/09/11 07:05:55;;;;;;;2.42;1.30;;;15.10;96.90;;;;;;5322327;22;20336;-86
2022/09/11 07:08:22;;;;;;;1.67;1.40;;;15.10;96.90;;;;;;5039350;28;20202;-86
2022/09/11 07:10:50;;;;;;;3.80;1.65;;;15.10;96.90;;;;;;5046707;28;20214;-86
2022/09/11 07:13:18;;;;;;;2.63;1.40;;;15.10;96.90;;;;;;5048544;28;20621;-86
2022/09/11 07:15:46;;;;;;;1.90;1.40;;;15.30;96.30;;;;;;5038886;28;20202;-86
2022/09/11 07:18:13;;;;;;;2.78;1.60;;;15.30;96.10;;;;;;5042903;28;20213;-86
2022/09/11 07:20:41;;;;;;;4.10;1.50;;;15.30;96.30;;;;;;5048428;28;20209;-86
2022/09/11 07:23:08;;;;;;;5.25;1.63;;;15.40;96.30;;;;;;5055298;28;20205;-86
2022/09/11 07:25:37;;;;;;;3.15;1.92;;;15.50;95.90;;;;;;5051841;28;20217;-87
2022/09/11 07:28:05;;;;;;;2.22;1.40;;;15.50;95.80;;;;;;5045248;28;20215;-86
2022/09/11 07:30:32;;;;;;;2.95;1.60;;;15.50;95.20;;;;;;5053908;28;20226;-84
2022/09/11 07:32:59;;;;;;;2.83;1.80;;;15.60;95.90;;;;;;5049332;28;20206;-85
2022/09/11 07:35:26;;;;;;;3.90;1.45;;;15.80;95.40;;;;;;5050751;28;20251;-85
2022/09/11 07:37:53;;;;;;;3.80;1.77;;;16.00;94.80;;;;;;5049561;28;20217;-85
2022/09/11 07:40:20;;;;;;;3.60;1.70;;;15.90;95.10;;;;;;5047642;28;20233;-85
2022/09/11 07:42:46;;;;;;;2.17;1.60;;;15.80;95.70;;;;;;5051225;28;20216;-85
2022/09/11 07:45:17;;;;;;;3.75;1.75;;;15.80;95.60;;;;;;5051272;28;20254;-85
2022/09/11 07:47:44;;;;;;;3.95;1.92;;;15.70;96.30;;;;;;5054620;28;20206;-85
2022/09/11 07:50:11;;;;;;;3.22;2.15;;;15.60;96.60;;;;;;5051132;28;20237;-85
2022/09/11 07:52:38;;;;;;;3.38;2.10;;;15.60;97.00;;;;;;5052482;28;20613;-85
2022/09/11 07:55:06;;;;;;;2.90;1.65;;;15.70;97.00;;;;;;5045530;28;20213;-85
2022/09/11 07:57:33;;;;;;;3.45;1.83;;;15.70;96.80;;;;;;5051143;28;20209;-85
2022/09/11 08:00:00;;;;;;;3.13;2.10;;;15.70;96.80;;;;;;5050873;28;20309;-85
2022/09/11 08:02:28;;;;;;;2.60;1.75;;;15.80;96.40;;;;;;5048866;28;20665;-85
2022/09/11 08:04:55;;;;;;;2.40;1.90;;;15.90;96.30;;;;;;5037178;28;20313;-85
2022/09/11 08:07:27;;;;;;;2.72;2.03;;;16.00;96.00;;;;;;5044658;28;20715;-87
2022/09/11 08:09:54;;;;;;;4.20;1.90;;;16.20;96.20;;;;;;5048528;28;20652;-85
2022/09/11 08:12:22;;;;;;;3.67;2.03;;;16.30;95.90;;;;;;5045634;28;20658;-86
2022/09/11 08:14:49;;;;;;;2.85;2.00;;;16.40;95.50;;;;;;5049391;28;20243;-86
2022/09/11 08:17:16;;;;;;;3.58;2.03;;;16.50;95.20;;;;;;5043640;28;20297;-87
2022/09/11 08:19:47;;;;;;;4.82;2.20;;;16.80;95.00;;;;;;5051105;28;20256;-87
2022/09/11 08:22:14;;;;;;;3.10;2.42;;;16.90;93.70;;;;;;5046899;28;20210;-88
2022/09/11 08:24:41;;;;;;;2.03;1.90;;;17.00;93.80;;;;;;5045117;28;20669;-87
2022/09/11 08:27:08;;;;;;;3.10;1.92;;;17.10;92.80;;;;;;5043351;28;20228;-87
2022/09/11 08:29:35;;;;;;;2.45;2.10;;;17.20;92.80;;;;;;5059730;28;20309;-86
2022/09/11 08:32:03;;;;;;;3.40;2.35;;;17.10;93.00;;;;;;5058593;28;20667;-87
2022/09/11 08:34:30;;;;;;;3.17;2.33;;;17.10;93.10;;;;;;5052723;28;20612;-87
2022/09/11 08:36:59;;;;;;;4.65;2.70;;;17.20;93.10;;;;;;5052735;28;20312;-88
2022/09/11 08:39:25;;;;;;;4.13;2.45;;;17.10;92.50;;;;;;5055499;28;20202;-87
2022/09/11 08:41:55;;;;;;;3.15;2.30;;;16.90;92.90;;;;;;5045872;28;20293;-88
2022/09/11 08:44:25;;;;;;;5.63;4.75;;;16.80;93.60;;;;;;5050795;28;20194;-88
2022/09/11 08:46:56;;;;;;;4.30;2.30;;;16.80;93.20;;;;;;5050310;28;20286;-88
2022/09/11 08:49:25;;;;;;;5.40;2.80;;;16.60;94.00;;;;;;5044904;28;20221;-87
2022/09/11 08:51:55;;;;;;;9.00;6.70;;;16.60;94.00;;;;;;5047865;28;20660;-88
2022/09/11 08:54:27;;;;;;;3.53;2.85;;;16.60;93.50;;;;;;5050162;28;20193;-87
2022/09/11 08:57:10;;;;;;;4.07;3.10;;;16.50;93.70;;;;;;5040359;28;20202;-88
2022/09/11 08:59:49;;;;;;;12.98;11.52;;;16.60;93.40;;;;;;5047153;28;20690;-87
2022/09/11 09:02:31;;;;;;;4.72;3.50;;;16.70;93.60;;;;;;5048102;28;20212;-88
2022/09/11 09:05:20;;;;;;;4.38;3.20;;;16.70;93.70;;;;;;5046266;28;20228;-87
2022/09/11 09:08:03;;;;;;;4.05;2.60;;;16.90;93.20;;;;;;5047684;28;20292;-87
2022/09/11 09:10:46;;;;;;;14.85;12.25;;;17.20;92.00;;;;;;5047615;28;20221;-87
2022/09/11 09:13:30;;;;;;;4.85;3.00;;;17.30;91.70;;;;;;5044117;28;20217;-87
2022/09/11 09:16:12;;;;;;;10.32;7.97;;;17.10;92.30;;;;;;5043848;28;20205;-88
2022/09/11 09:18:44;;;;;;;4.47;2.90;;;16.90;91.90;;;;;;5045411;28;20205;-87
2022/09/11 09:21:20;;;;;;;5.95;3.17;;;17.00;91.90;;;;;;5050647;28;20208;-88
2022/09/11 09:23:52;;;;;;;4.38;2.85;;;17.00;91.90;;;;;;5049205;28;20206;-88
2022/09/11 09:26:29;;;;;;;4.28;2.90;;;17.00;91.90;;;;;;5048667;28;20236;-86
2022/09/11 09:28:59;;;;;;;3.40;2.88;;;17.00;92.10;;;;;;5049684;28;20209;-88
2022/09/11 09:31:30;;;;;;;4.72;3.38;;;17.10;92.30;;;;;;5050912;28;20583;-87
2022/09/11 09:34:01;;;;;;;3.55;3.00;;;17.10;92.40;;;;;;5048668;28;20674;-87
2022/09/11 09:36:36;;;;;;;4.43;2.80;;;17.10;92.70;;;;;;5049723;28;20213;-88
2022/09/11 09:39:13;;;;;;;4.28;2.78;;;17.10;93.20;;;;;;5048643;28;20205;-86
2022/09/11 09:42:09;;;;;;;4.30;3.22;;;16.90;93.80;;;;;;5051013;28;20200;-87
2022/09/11 09:44:46;;;;;;;4.40;3.60;;;16.80;93.90;;;;;;5054017;28;20198;-88
2022/09/11 09:47:14;;;;;;;5.07;3.53;;;16.70;94.60;;;;;;5051915;28;20288;-90
2022/09/11 09:49:42;;;;;;;3.58;3.10;;;16.70;94.80;;;;;;5054148;28;20213;-89
2022/09/11 09:52:17;;;;;;;4.85;2.85;;;16.70;94.50;;;;;;5054816;28;20190;-88
2022/09/11 09:54:52;;;;;;;4.72;3.30;;;16.70;94.50;;;;;;5054786;28;20211;-89
2022/09/11 09:57:26;;;;;;;4.78;3.58;;;16.80;94.10;;;;;;5045583;28;20203;-88
2022/09/11 10:00:05;;;;;;;4.20;3.40;;;16.70;94.10;;;;;;5051155;28;20200;-88
2022/09/11 10:02:38;;;;;;;5.75;3.58;;;16.90;94.30;;;;;;5053556;28;20205;-88
2022/09/11 10:05:18;;;;;;;4.05;3.58;;;17.00;93.80;;;;;;5051365;28;20233;-90
2022/09/11 10:07:51;;;;;;;3.17;2.88;;;17.10;93.30;;;;;;5050269;28;20212;-88
2022/09/11 10:10:25;;;;;;;4.38;3.10;;;17.10;94.00;;;;;;5052917;28;20272;-88
2022/09/11 10:13:01;;;;;;;4.55;3.20;;;16.90;94.00;;;;;;5043481;28;20200;-88
2022/09/11 10:15:48;;;;;;;4.45;3.50;;;16.70;94.60;;;;;;5051512;28;20220;-89
2022/09/11 10:18:23;;;;;;;5.85;4.30;;;16.50;95.60;;;;;;5051425;28;20202;-89
2022/09/11 10:20:53;;;;;;;4.57;4.10;;;16.30;97.20;;;;;;5051768;28;20209;-88
2022/09/11 10:23:25;;;;;;;4.38;3.97;;;16.00;97.20;;;;;;5048076;28;20206;-88
2022/09/11 10:26:04;;;;;;;6.00;4.88;;;15.80;97.70;;;;;;5049023;28;20198;-90
2022/09/11 10:28:34;;;;;;;5.35;4.40;;;15.80;98.10;;;;;;5053020;28;20201;-90
2022/09/11 10:31:27;;;;;;;6.05;4.63;;;15.70;98.30;;;;;;5045230;28;20211;-91
2022/09/11 10:33:59;;;;;;;8.27;5.97;;;15.60;98.50;;;;;;5048822;28;20714;-90
2022/09/11 10:36:40;;;;;;;6.15;4.57;;;15.40;98.90;;;;;;5047232;28;20616;-89
2022/09/11 10:39:19;;;;;;;9.45;5.60;;;15.50;98.90;;;;;;5051260;28;20274;-90
2022/09/11 10:42:04;;;;;;;5.50;4.72;;;15.30;99.40;;;;;;5053247;28;20682;-90
2022/09/11 10:44:44;;;;;;;4.85;4.43;;;15.30;99.80;;;;;;5048440;28;20877;-89
2022/09/11 10:47:28;;;;;;;5.25;4.70;;;15.50;99.90;;;;;;5051975;28;20645;-89
2022/09/11 10:50:18;;;;;;;5.47;4.35;;;15.80;99.90;;;;;;5044719;28;20214;-90
2022/09/11 10:52:55;;;;;;;4.82;4.22;;;16.20;99.00;;;;;;5043945;28;20205;-88
2022/09/11 10:55:23;;;;;;;5.18;4.63;;;16.50;97.30;;;;;;5057020;28;20207;-89
2022/09/11 10:57:54;;;;;;;5.15;4.60;;;16.60;97.30;;;;;;5059030;28;20197;-89
2022/09/11 11:01:03;;;;;;;4.35;3.92;;;16.70;97.30;;;;;;5058589;28;20194;-90
2022/09/11 11:04:00;;;;;;;4.35;3.95;;;17.10;97.30;;;;;;5049731;28;20623;-90
2022/09/11 11:06:44;;;;;;;4.30;4.00;;;17.40;96.10;;;;;;5051414;28;20229;-91
2022/09/11 11:09:40;;;;;;;5.00;4.55;;;17.70;95.40;;;;;;5055100;28;20617;-92
2022/09/11 11:12:31;;;;;;;5.03;4.38;;;17.90;95.70;;;;;;5050653;28;20198;-91
2022/09/11 11:15:37;;;;;;;4.70;4.10;;;18.10;94.30;;;;;;5051821;28;20273;-90
2022/09/11 11:18:22;;;;;;;6.13;4.07;;;18.50;94.10;;;;;;5044638;28;20197;-89
2022/09/11 11:21:17;;;;;;;3.97;3.60;;;18.60;92.30;;;;;;5045997;28;20198;-89
2022/09/11 11:24:08;;;;;;;5.80;3.83;;;18.20;92.20;;;;;;5050232;28;20582;-89
2022/09/11 11:26:56;;;;;;;3.78;3.42;;;17.80;92.10;;;;;;5049527;28;20419;-89
2022/09/11 11:29:49;;;;;;;4.85;3.80;;;17.60;93.30;;;;;;5051360;28;20205;-90
2022/09/11 11:32:45;;;;;;;3.60;3.30;;;17.50;93.70;;;;;;5047884;28;20197;-88
2022/09/11 11:35:43;;;;;;;4.60;3.20;;;17.40;94.40;;;;;;5048786;28;20285;-89
2022/09/11 11:38:28;;;;;;;3.70;3.40;;;17.10;94.00;;;;;;5053454;28;20858;-88
2022/09/11 11:41:29;;;;;;;7.25;4.32;;;17.00;95.10;;;;;;5047522;28;20402;-91
2022/09/11 11:46:51;;;;;;;6.45;4.78;;;16.50;97.30;;;;;;5050375;28;20205;-88
2022/09/11 11:49:23;;;;;;;5.70;4.38;;;16.40;97.80;;;;;;5054545;28;20204;-88
2022/09/11 11:52:05;;;;;;;4.35;3.92;;;16.50;98.00;;;;;;5049525;28;20214;-89
2022/09/11 11:55:02;;;;;;;4.80;4.30;;;16.40;97.80;;;;;;5050399;28;20217;-89
2022/09/11 11:57:40;;;;;;;6.32;4.32;;;16.30;99.00;;;;;;5049484;28;20574;-88
2022/09/11 12:00:11;;;;;;;4.43;4.03;;;16.30;99.30;;;;;;5052149;28;20197;-87
2022/09/11 12:02:51;;;;;;;4.32;3.92;;;16.40;99.30;;;;;;5046650;28;20190;-86
2022/09/11 12:05:23;;;;;;;5.18;3.85;;;16.60;99.40;;;;;;5051184;28;20225;-87
2022/09/11 12:07:59;;;;;;;5.65;4.45;;;16.80;98.30;;;;;;5048362;28;20191;-86
2022/09/11 12:10:37;;;;;;;7.45;5.30;;;17.10;98.20;;;;;;5052463;28;20233;-86
2022/09/11 12:13:09;;;;;;;4.45;4.05;;;17.40;97.50;;;;;;5045831;28;20190;-86
2022/09/11 12:15:39;;;;;;;3.88;3.25;;;17.90;97.60;;;;;;5030634;28;20212;-86
2022/09/11 12:18:23;;;;;;;3.38;3.08;;;18.00;96.50;;;;;;5053398;28;20251;-86
2022/09/11 12:20:51;;;;;;;3.47;3.17;;;18.30;94.70;;;;;;5052360;28;20204;-86
2022/09/11 12:23:54;;;;;;;3.30;3.00;;;18.10;93.80;;;;;;5048431;28;20818;-87
2022/09/11 12:26:23;;;;;;;4.45;3.65;;;18.00;94.90;;;;;;5050586;28;20200;-87
2022/09/11 12:29:45;;;;;;;3.35;3.05;;;18.00;95.50;;;;;;5049892;28;20566;-87
2022/09/11 12:32:41;;;;;;;4.60;3.70;;;17.80;94.40;;;;;;4988609;28;20256;-87
2022/09/11 12:35:21;;;;;;;3.78;3.17;;;17.80;95.30;;;;;;4985512;28;20316;-88
2022/09/11 12:38:02;;;;;;;3.17;2.97;;;18.10;94.60;;;;;;4988298;28;20193;-87
2022/09/11 12:40:49;;;;;;;3.20;2.63;;;18.60;93.30;;;;;;4983652;28;20213;-87
2022/09/11 12:43:47;;;;;;;4.28;2.55;;;18.90;93.40;;;;;;4990461;28;21118;-88
2022/09/11 12:47:13;;;;;;;2.67;2.40;;;19.30;91.90;;;;;;4985174;28;20195;-87
2022/09/11 12:50:15;;;;;;;2.53;2.33;;;19.10;90.30;;;;;;4918103;29;20342;-86
2022/09/11 12:52:50;;;;;;;3.15;2.80;;;18.70;91.10;;;;;;4926994;29;20220;-86
2022/09/11 12:55:34;;;;;;;2.70;2.50;;;18.30;92.70;;;;;;4932735;29;20208;-86
2022/09/11 12:58:03;;;;;;;4.45;3.35;;;18.00;93.30;;;;;;4929492;29;20694;-87
2022/09/11 13:01:02;;;;;;;3.05;2.75;;;17.80;93.90;;;;;;4930509;29;20206;-89
2022/09/11 13:03:50;;;;;;;3.53;3.22;;;17.40;95.30;;;;;;4953375;28;20239;-89
2022/09/11 13:06:40;;;;;;;3.63;3.05;;;17.20;96.80;;;;;;4970113;28;20279;-88
2022/09/11 13:09:36;;;;;;;3.10;2.80;;;17.10;97.30;;;;;;4974460;28;20213;-87
2022/09/11 13:12:50;;;;;;;3.50;3.20;;;17.10;97.00;;;;;;4969026;28;20735;-87
2022/09/11 13:15:37;;;;;;;3.88;3.47;;;17.40;97.40;;;;;;4968638;28;20216;-88
2022/09/11 13:21:39;;;;;;;3.90;3.55;;;18.20;95.60;;;;;;4972509;28;20195;-89
2022/09/11 13:24:26;;;;;;;4.60;3.60;;;18.30;95.30;;;;;;4979752;28;20211;-88
2022/09/11 13:27:02;;;;;;;4.57;3.78;;;18.40;95.20;;;;;;5049106;28;20199;-89
2022/09/11 13:29:55;;;;;;;5.05;3.55;;;18.40;95.70;;;;;;5050238;28;20288;-88